Time;durP1;ratioP1;P1;durP2;ratioP2;P2;SDS_P1;SDS_P2;PMS_P1;PMS_P2;Temp;Humidity;BMP_temperature;BMP_pressure;BME280_temperature;BME280_humidity;BME280_pressure;Samples;Min_cycle;Max_cycle;Signal;HPM_P1;HPM_P2
2023/07/19 00:00:49;;;;;;;4.70;2.70;;;;;;;16.18;68.37;96526.17;107855;1276;22527;-72
2023/07/19 00:03:40;;;;;;;4.30;2.80;;;;;;;16.23;68.64;96515.30;107717;1282;25391;-73
2023/07/19 00:06:11;;;;;;;4.50;2.80;;;;;;;16.30;68.76;96519.66;107784;1284;24275;-72
2023/07/19 00:08:42;;;;;;;4.90;2.90;;;;;;;16.32;68.71;96519.04;107825;1284;22630;-72
2023/07/19 00:11:13;;;;;;;5.60;2.70;;;;;;;16.36;68.88;96515.36;107785;1277;22537;-72
2023/07/19 00:13:44;;;;;;;4.90;2.70;;;;;;;16.41;68.86;96502.63;107823;1284;24617;-72
2023/07/19 00:16:15;;;;;;;4.50;2.90;;;;;;;16.46;68.96;96498.39;107808;1282;22615;-72
2023/07/19 00:18:46;;;;;;;5.30;3.00;;;;;;;16.47;68.89;96498.67;107815;1284;24237;-73
2023/07/19 00:21:17;;;;;;;6.00;3.10;;;;;;;16.37;69.07;96490.77;107819;1283;22545;-72
2023/07/19 00:23:48;;;;;;;4.70;2.90;;;;;;;16.35;69.13;96483.88;107794;1280;22743;-72
2023/07/19 00:26:19;;;;;;;4.20;2.80;;;;;;;16.28;69.07;96484.80;107797;1284;25339;-73
2023/07/19 00:28:50;;;;;;;5.10;2.90;;;;;;;16.29;69.22;96486.21;107742;1284;22559;-72
2023/07/19 00:31:22;;;;;;;6.50;3.00;;;;;;;16.32;69.32;96477.33;107822;1284;22576;-72
2023/07/19 00:33:53;;;;;;;5.80;2.70;;;;;;;16.36;69.27;96475.20;107787;1284;22556;-72
2023/07/19 00:36:24;;;;;;;6.30;3.40;;;;;;;16.35;69.31;96469.06;107821;1281;22604;-72
2023/07/19 00:38:55;;;;;;;4.90;2.90;;;;;;;16.21;69.08;96466.10;107843;1284;22658;-72
2023/07/19 00:41:26;;;;;;;3.20;2.50;;;;;;;16.13;69.29;96470.08;107837;1284;22526;-72
2023/07/19 00:43:57;;;;;;;4.20;2.60;;;;;;;16.12;69.59;96472.87;107832;1284;22540;-72
2023/07/19 00:46:28;;;;;;;3.50;2.60;;;;;;;16.04;69.77;96474.93;107800;1280;22568;-72
2023/07/19 00:49:00;;;;;;;7.40;3.00;;;;;;;16.02;70.03;96471.77;107798;1285;22530;-72
2023/07/19 00:51:32;;;;;;;7.20;2.60;;;;;;;16.07;70.30;96467.22;107832;1284;22568;-72
2023/07/19 00:54:07;;;;;;;5.20;3.00;;;;;;;16.11;70.47;96462.65;107807;1278;22529;-72
2023/07/19 00:56:39;;;;;;;5.80;2.80;;;;;;;16.17;70.38;96453.66;107769;1284;22537;-72
2023/07/19 00:59:12;;;;;;;4.40;2.60;;;;;;;16.18;70.69;96449.07;107791;1284;24262;-72
2023/07/19 01:01:48;;;;;;;4.80;2.80;;;;;;;16.18;70.88;96447.46;107802;1282;22532;-72
2023/07/19 01:04:19;;;;;;;4.60;2.80;;;;;;;16.14;70.80;96438.25;107856;1280;22540;-72
2023/07/19 01:06:50;;;;;;;4.70;2.50;;;;;;;16.09;70.97;96432.27;107826;1280;22524;-72
2023/07/19 01:09:21;;;;;;;6.10;2.90;;;;;;;16.09;70.99;96426.16;107808;1280;22539;-72
2023/07/19 01:11:52;;;;;;;5.30;3.20;;;;;;;16.05;70.99;96421.55;107790;1280;22531;-72
2023/07/19 01:14:23;;;;;;;4.70;2.70;;;;;;;16.03;71.01;96421.40;107830;1284;22551;-72
2023/07/19 01:16:54;;;;;;;7.20;3.00;;;;;;;16.05;71.09;96415.91;107813;1284;22550;-72
2023/07/19 01:19:25;;;;;;;5.20;3.00;;;;;;;15.99;71.02;96417.70;107835;1284;22963;-72
2023/07/19 01:21:59;;;;;;;6.10;3.00;;;;;;;15.94;70.95;96416.44;107801;1277;22600;-72
2023/07/19 01:24:32;;;;;;;7.10;3.00;;;;;;;15.88;71.10;96418.50;107838;1284;25294;-72
2023/07/19 01:27:04;;;;;;;4.90;2.90;;;;;;;15.85;71.20;96427.25;107828;1283;22526;-72
2023/07/19 01:29:35;;;;;;;5.40;3.10;;;;;;;15.87;71.30;96427.09;107816;1284;22550;-72
2023/07/19 01:32:07;;;;;;;5.70;2.60;;;;;;;15.88;71.06;96425.64;107768;1280;24721;-72
2023/07/19 01:34:38;;;;;;;7.00;3.10;;;;;;;15.92;70.85;96429.11;107830;1285;25289;-70
2023/07/19 01:37:09;;;;;;;4.90;3.40;;;;;;;15.95;70.47;96421.27;107844;1284;24249;-72
2023/07/19 01:39:40;;;;;;;5.80;2.90;;;;;;;15.98;70.46;96415.77;107793;1280;22559;-72
2023/07/19 01:42:12;;;;;;;6.20;3.00;;;;;;;16.02;70.28;96409.84;107820;1281;25018;-72
2023/07/19 01:44:43;;;;;;;5.20;3.20;;;;;;;16.09;70.21;96411.15;107776;1284;25325;-72
2023/07/19 01:47:14;;;;;;;6.60;3.20;;;;;;;16.11;69.99;96411.64;107787;1284;22581;-72
2023/07/19 01:49:45;;;;;;;5.10;3.50;;;;;;;16.08;69.83;96407.31;107797;1277;22585;-72
2023/07/19 01:52:16;;;;;;;6.90;3.30;;;;;;;16.00;69.87;96400.94;107766;1283;22988;-72
2023/07/19 01:54:47;;;;;;;5.90;3.60;;;;;;;16.02;69.99;96397.50;107831;1280;22779;-73
2023/07/19 01:57:18;;;;;;;4.40;3.30;;;;;;;16.05;69.90;96396.18;107830;1284;22601;-72
2023/07/19 01:59:49;;;;;;;6.00;2.90;;;;;;;16.09;69.85;96398.73;107796;1284;22534;-72
2023/07/19 02:02:20;;;;;;;6.90;3.20;;;;;;;16.12;69.69;96394.71;107751;1280;23111;-72
2023/07/19 02:04:51;;;;;;;5.10;3.00;;;;;;;16.10;69.58;96393.71;107773;1280;22531;-72
2023/07/19 02:07:22;;;;;;;6.00;3.60;;;;;;;16.10;69.63;96392.48;107788;1284;26807;-72
2023/07/19 02:09:54;;;;;;;4.20;2.70;;;;;;;16.11;69.60;96383.75;107803;1284;25503;-72
2023/07/19 02:12:25;;;;;;;6.30;3.10;;;;;;;16.09;69.48;96380.52;107755;1284;22542;-72
2023/07/19 02:14:57;;;;;;;5.70;3.50;;;;;;;16.01;69.45;96383.54;107794;1280;24234;-72
2023/07/19 02:17:28;;;;;;;4.30;2.90;;;;;;;15.93;69.61;96383.31;107803;1284;24381;-72
2023/07/19 02:19:59;;;;;;;6.00;3.00;;;;;;;15.86;69.60;96377.59;107814;1282;22551;-72
2023/07/19 02:22:30;;;;;;;4.10;3.20;;;;;;;15.82;69.74;96379.55;107732;1277;25267;-72
2023/07/19 02:25:02;;;;;;;6.60;3.50;;;;;;;15.83;69.84;96379.20;107770;1284;22543;-72
2023/07/19 02:27:33;;;;;;;7.20;3.40;;;;;;;15.87;69.93;96377.30;107802;1284;22687;-72
2023/07/19 02:30:05;;;;;;;5.60;3.40;;;;;;;15.92;69.72;96377.63;107792;1285;22570;-72
2023/07/19 02:32:36;;;;;;;4.80;3.10;;;;;;;15.95;69.93;96381.79;107786;1284;24202;-72
2023/07/19 02:35:07;;;;;;;5.00;3.20;;;;;;;15.91;69.78;96380.86;107798;1284;25359;-71
2023/07/19 02:37:39;;;;;;;3.60;2.90;;;;;;;15.86;69.91;96376.48;107800;1284;22529;-72
2023/07/19 02:40:11;;;;;;;4.80;3.50;;;;;;;15.88;70.01;96377.52;107788;1284;22537;-72
2023/07/19 02:42:43;;;;;;;8.70;3.80;;;;;;;15.90;70.00;96373.88;107812;1264;24641;-72
2023/07/19 02:45:14;;;;;;;6.30;3.20;;;;;;;15.96;69.89;96366.23;107806;1284;22573;-73
2023/07/19 02:47:45;;;;;;;5.50;3.20;;;;;;;16.01;69.82;96364.23;107815;1284;22534;-72
2023/07/19 02:50:18;;;;;;;5.40;3.30;;;;;;;16.06;69.75;96359.86;107777;1283;24212;-72
2023/07/19 02:52:50;;;;;;;4.90;2.80;;;;;;;16.09;69.61;96364.87;107761;1283;22533;-72
2023/07/19 02:55:21;;;;;;;4.80;3.30;;;;;;;16.11;69.56;96363.95;107811;1280;22534;-72
2023/07/19 02:57:52;;;;;;;5.90;3.30;;;;;;;16.13;69.34;96358.62;107788;1284;24357;-72
2023/07/19 03:00:24;;;;;;;5.30;3.20;;;;;;;16.10;69.31;96353.76;107800;1284;25424;-71
2023/07/19 03:02:55;;;;;;;6.80;3.60;;;;;;;16.07;69.37;96354.54;107789;1284;22568;-72
2023/07/19 03:05:29;;;;;;;4.70;3.20;;;;;;;16.06;69.35;96357.77;107802;1277;22546;-72
2023/07/19 03:08:04;;;;;;;6.60;3.40;;;;;;;16.08;69.44;96359.56;107785;1284;22541;-72
2023/07/19 03:10:34;;;;;;;6.10;3.50;;;;;;;16.08;69.49;96360.45;107819;1284;22527;-72
2023/07/19 03:13:06;;;;;;;6.00;3.80;;;;;;;16.09;69.49;96359.96;107765;1285;22531;-72
2023/07/19 03:15:38;;;;;;;6.00;3.40;;;;;;;16.03;69.37;96356.98;107767;1280;22610;-72
2023/07/19 03:18:09;;;;;;;6.30;3.50;;;;;;;15.96;69.60;96360.21;107826;1284;22586;-72
2023/07/19 03:20:40;;;;;;;4.50;3.20;;;;;;;15.95;69.72;96359.65;107788;1284;22566;-72
2023/07/19 03:23:11;;;;;;;5.10;3.70;;;;;;;15.96;69.77;96355.02;107791;1268;22523;-72
2023/07/19 03:25:44;;;;;;;7.50;4.00;;;;;;;15.90;69.84;96357.20;107776;1279;22553;-72
2023/07/19 03:28:15;;;;;;;6.70;4.20;;;;;;;15.84;70.15;96353.73;107801;1280;24512;-72
2023/07/19 03:30:46;;;;;;;6.70;3.70;;;;;;;15.80;70.33;96352.64;107767;1282;25337;-74
2023/07/19 03:33:17;;;;;;;5.80;3.60;;;;;;;15.71;70.55;96349.53;107848;1283;22530;-72
2023/07/19 03:35:49;;;;;;;6.20;3.60;;;;;;;15.65;70.87;96350.11;107867;1283;24270;-72
2023/07/19 03:38:22;;;;;;;4.70;3.40;;;;;;;15.64;71.14;96349.67;107859;1283;22544;-72
2023/07/19 03:40:53;;;;;;;5.90;3.60;;;;;;;15.64;71.35;96350.15;107888;1283;22579;-72
2023/07/19 03:43:24;;;;;;;6.40;3.90;;;;;;;15.63;71.66;96355.76;107868;1279;22530;-72
2023/07/19 03:45:55;;;;;;;5.10;3.60;;;;;;;15.69;71.86;96359.98;107885;1276;22545;-72
2023/07/19 03:48:26;;;;;;;6.30;3.60;;;;;;;15.77;72.02;96363.62;107841;1276;22727;-72
2023/07/19 03:51:02;;;;;;;5.50;3.80;;;;;;;15.86;72.08;96357.09;107857;1280;22527;-72
2023/07/19 03:53:34;;;;;;;5.90;3.60;;;;;;;15.93;72.23;96359.09;108027;1283;23014;-72
2023/07/19 03:56:06;;;;;;;5.70;3.00;;;;;;;16.01;72.52;96361.48;107869;1280;22656;-72
2023/07/19 03:58:39;;;;;;;6.70;3.80;;;;;;;16.04;72.37;96363.68;107859;1283;22582;-72
2023/07/19 04:01:10;;;;;;;6.40;3.70;;;;;;;16.06;72.09;96361.92;107851;1283;23062;-72
2023/07/19 04:03:42;;;;;;;5.70;3.50;;;;;;;16.03;71.93;96361.51;107877;1277;22527;-72
2023/07/19 04:06:13;;;;;;;5.90;3.60;;;;;;;16.01;71.98;96363.15;107889;1283;22597;-72
2023/07/19 04:08:44;;;;;;;5.10;3.20;;;;;;;15.98;71.99;96356.87;107859;1277;22546;-73
2023/07/19 04:11:15;;;;;;;5.50;3.50;;;;;;;15.99;72.07;96359.16;107841;1280;23993;-72
2023/07/19 04:13:46;;;;;;;5.80;4.20;;;;;;;15.98;71.99;96355.77;107879;1283;22543;-72
2023/07/19 04:16:17;;;;;;;6.60;4.10;;;;;;;15.96;72.06;96352.25;107885;1283;22526;-72
2023/07/19 04:18:48;;;;;;;8.90;3.80;;;;;;;15.93;72.21;96346.41;107888;1283;22542;-72
2023/07/19 04:21:19;;;;;;;6.00;3.60;;;;;;;15.96;72.48;96347.23;107854;1283;24282;-72
2023/07/19 04:23:51;;;;;;;8.20;4.40;;;;;;;15.95;72.30;96350.00;107906;1283;22541;-72
2023/07/19 04:26:22;;;;;;;6.10;3.60;;;;;;;15.91;72.29;96350.14;107895;1280;22534;-73
2023/07/19 04:28:53;;;;;;;8.50;4.00;;;;;;;15.93;72.69;96354.73;107797;1276;23332;-72
2023/07/19 04:31:23;;;;;;;7.50;4.10;;;;;;;16.01;72.97;96352.55;107872;1283;23066;-73
2023/07/19 04:33:55;;;;;;;5.70;4.00;;;;;;;16.10;72.89;96353.54;107806;1284;22586;-72
2023/07/19 04:36:26;;;;;;;7.80;3.40;;;;;;;16.18;72.74;96350.96;107799;1278;22582;-72
2023/07/19 04:38:57;;;;;;;6.50;3.60;;;;;;;16.23;72.87;96351.77;107799;1283;22637;-72
2023/07/19 04:41:30;;;;;;;7.00;4.10;;;;;;;16.32;72.73;96351.52;107788;1283;22658;-72
2023/07/19 04:44:01;;;;;;;4.70;3.70;;;;;;;16.47;72.69;96346.78;107795;1284;22563;-72
2023/07/19 04:46:32;;;;;;;5.40;3.60;;;;;;;16.64;72.80;96346.23;107636;1284;198178;-72
2023/07/19 04:49:03;;;;;;;6.80;3.80;;;;;;;16.78;72.85;96346.56;107810;1284;22553;-72
2023/07/19 04:51:35;;;;;;;6.30;3.40;;;;;;;16.92;72.92;96346.61;107813;1284;25310;-72
2023/07/19 04:54:06;;;;;;;5.70;3.80;;;;;;;17.03;72.60;96346.66;107804;1280;22531;-72
2023/07/19 04:56:38;;;;;;;7.30;3.90;;;;;;;17.10;72.35;96345.85;107810;1284;22546;-72
2023/07/19 04:59:09;;;;;;;7.00;3.80;;;;;;;17.14;72.32;96346.48;107869;1277;22556;-72
2023/07/19 05:01:40;;;;;;;8.20;3.80;;;;;;;17.19;72.49;96347.59;107769;1284;23119;-72
2023/07/19 05:04:12;;;;;;;7.40;4.00;;;;;;;17.21;72.27;96344.83;107826;1284;22539;-72
2023/07/19 05:06:43;;;;;;;5.70;3.80;;;;;;;17.24;72.22;96346.29;107821;1284;25085;-72
2023/07/19 05:09:14;;;;;;;5.60;3.20;;;;;;;17.28;72.11;96345.80;107809;1284;22573;-72
2023/07/19 05:11:45;;;;;;;5.90;4.10;;;;;;;17.30;71.73;96343.52;107771;1282;25377;-72
2023/07/19 05:14:17;;;;;;;6.00;4.10;;;;;;;17.30;71.71;96341.59;107826;1279;22522;-72
2023/07/19 05:16:48;;;;;;;6.40;3.70;;;;;;;17.33;71.74;96345.19;107803;1278;22538;-72
2023/07/19 05:19:19;;;;;;;5.20;3.60;;;;;;;17.38;71.84;96343.50;107787;1280;22527;-72
2023/07/19 05:21:50;;;;;;;6.70;3.80;;;;;;;17.91;72.93;96346.91;107841;1284;22527;-72
2023/07/19 05:24:21;;;;;;;6.40;3.70;;;;;;;18.68;72.00;96349.90;107802;1283;22673;-73
2023/07/19 05:26:52;;;;;;;5.60;3.50;;;;;;;19.35;70.77;96349.30;107806;1283;22531;-72
2023/07/19 05:29:23;;;;;;;9.10;4.20;;;;;;;19.43;69.28;96349.77;107828;1284;22548;-72
2023/07/19 05:31:55;;;;;;;5.90;3.50;;;;;;;19.18;68.30;96351.73;107777;1282;22534;-72
2023/07/19 05:34:26;;;;;;;8.40;3.70;;;;;;;19.34;69.20;96347.42;107792;1283;22567;-73
2023/07/19 05:36:57;;;;;;;5.80;4.20;;;;;;;20.23;69.52;96334.79;107816;1284;22538;-72
2023/07/19 05:39:28;;;;;;;4.70;3.40;;;;;;;21.10;68.04;96335.67;107842;1284;22530;-73
2023/07/19 05:41:59;;;;;;;6.50;3.50;;;;;;;21.58;66.20;96339.77;107815;1280;24918;-73
2023/07/19 05:44:31;;;;;;;5.10;3.40;;;;;;;21.30;65.02;96333.41;107776;1280;24252;-72
2023/07/19 05:47:02;;;;;;;5.90;3.90;;;;;;;20.75;63.97;96331.43;107820;1284;25373;-72
2023/07/19 05:49:33;;;;;;;5.10;3.50;;;;;;;20.14;63.98;96336.17;107781;1283;22976;-72
2023/07/19 05:52:05;;;;;;;4.30;3.20;;;;;;;19.81;64.42;96334.23;107793;1284;22534;-73
2023/07/19 05:54:40;;;;;;;5.20;3.60;;;;;;;19.46;64.32;96330.20;107829;1284;22514;-72
2023/07/19 05:57:13;;;;;;;5.70;3.30;;;;;;;19.44;64.80;96320.55;107808;1284;25476;-72
2023/07/19 05:59:44;;;;;;;5.60;3.60;;;;;;;19.40;64.57;96323.59;107819;1284;22528;-72
2023/07/19 06:02:16;;;;;;;5.70;3.80;;;;;;;19.58;65.79;96321.40;107779;1261;22534;-72
2023/07/19 06:04:48;;;;;;;6.60;4.00;;;;;;;20.32;66.30;96312.09;107802;1284;22700;-73
2023/07/19 06:07:20;;;;;;;7.10;4.20;;;;;;;20.88;64.87;96315.16;107810;1280;25389;-72
2023/07/19 06:09:51;;;;;;;4.90;3.60;;;;;;;21.05;64.49;96315.61;107807;1284;22542;-73
2023/07/19 06:12:22;;;;;;;5.00;3.60;;;;;;;21.41;64.37;96307.90;107793;1284;25640;-72
2023/07/19 06:14:53;;;;;;;5.50;3.70;;;;;;;21.90;63.71;96306.30;107836;1284;25264;-73
2023/07/19 06:17:26;;;;;;;6.90;3.70;;;;;;;22.31;62.48;96304.55;107822;1280;22533;-73
2023/07/19 06:19:58;;;;;;;7.30;4.10;;;;;;;22.28;60.98;96303.49;107837;1282;22547;-73
2023/07/19 06:22:29;;;;;;;6.30;3.60;;;;;;;22.26;61.15;96299.91;107776;1280;25280;-73
2023/07/19 06:25:01;;;;;;;6.10;3.70;;;;;;;22.42;60.50;96304.80;107844;1274;22637;-72
2023/07/19 06:27:33;;;;;;;7.20;4.20;;;;;;;22.20;60.19;96303.98;107810;1283;22574;-73
2023/07/19 06:30:04;;;;;;;6.70;3.90;;;;;;;21.98;60.21;96303.73;107839;1284;25383;-73
2023/07/19 06:32:36;;;;;;;7.20;4.50;;;;;;;21.68;60.41;96308.11;107807;1281;24252;-73
2023/07/19 06:35:09;;;;;;;5.10;3.70;;;;;;;21.67;61.16;96305.25;107834;1277;25240;-72
2023/07/19 06:37:40;;;;;;;8.20;4.10;;;;;;;22.12;61.56;96304.38;107844;1284;22614;-72
2023/07/19 06:40:20;;;;;;;7.60;4.00;;;;;;;22.64;61.17;96308.08;107821;1278;24195;-73
2023/07/19 06:42:52;;;;;;;8.20;4.30;;;;;;;22.72;60.31;96307.20;107779;1283;22634;-73
2023/07/19 06:45:23;;;;;;;6.60;4.00;;;;;;;22.78;60.75;96308.76;107826;1284;22557;-72
2023/07/19 06:47:55;;;;;;;6.90;4.00;;;;;;;23.03;60.18;96300.70;107814;1284;22626;-72
2023/07/19 06:50:26;;;;;;;5.50;3.40;;;;;;;23.31;60.19;96300.29;107806;1284;24440;-72
2023/07/19 06:52:59;;;;;;;5.00;3.50;;;;;;;23.68;59.99;96292.15;107794;1284;24262;-73
2023/07/19 06:55:31;;;;;;;5.30;3.70;;;;;;;24.12;59.62;96290.04;107820;1284;23435;-73
2023/07/19 06:58:02;;;;;;;6.30;4.10;;;;;;;24.52;59.15;96290.55;107795;1280;22546;-72
2023/07/19 07:00:33;;;;;;;5.70;3.60;;;;;;;24.89;58.55;96288.30;107841;1284;22746;-73
2023/07/19 07:03:04;;;;;;;6.10;3.80;;;;;;;25.19;57.80;96284.15;107785;1284;22530;-72
2023/07/19 07:05:36;;;;;;;8.90;3.70;;;;;;;25.34;57.15;96290.73;107822;1284;25286;-72
2023/07/19 07:08:07;;;;;;;6.40;4.00;;;;;;;25.51;56.99;96287.54;107800;1284;22877;-73
2023/07/19 07:10:38;;;;;;;7.80;4.20;;;;;;;25.69;56.68;96285.42;107821;1284;22548;-73
2023/07/19 07:13:09;;;;;;;5.70;3.80;;;;;;;25.97;56.46;96281.92;107808;1284;25538;-73
2023/07/19 07:15:41;;;;;;;5.90;3.80;;;;;;;26.27;56.10;96282.27;107799;1283;22612;-72
2023/07/19 07:18:12;;;;;;;8.20;3.70;;;;;;;26.56;55.71;96279.64;107819;1284;22531;-73
2023/07/19 07:20:43;;;;;;;4.80;3.90;;;;;;;26.81;55.16;96280.93;107816;1279;22534;-73
2023/07/19 07:23:17;;;;;;;5.30;3.40;;;;;;;27.06;54.47;96281.51;107906;1283;25423;-72
2023/07/19 07:25:51;;;;;;;4.60;3.70;;;;;;;27.22;54.18;96280.45;107881;1280;22602;-73
2023/07/19 07:28:23;;;;;;;5.00;3.50;;;;;;;27.46;53.85;96278.27;107901;1283;22580;-73
2023/07/19 07:30:54;;;;;;;4.80;3.80;;;;;;;27.56;53.04;96275.23;107854;1279;22633;-73
2023/07/19 07:33:25;;;;;;;8.00;4.20;;;;;;;27.65;53.03;96273.13;107838;1283;22531;-73
2023/07/19 07:35:57;;;;;;;4.50;3.40;;;;;;;27.70;52.69;96268.97;107870;1283;22546;-73
2023/07/19 07:38:28;;;;;;;6.50;3.60;;;;;;;27.75;52.53;96262.88;107889;1283;23054;-73
2023/07/19 07:41:05;;;;;;;4.90;4.00;;;;;;;27.78;51.99;96267.85;107863;1281;24332;-72
2023/07/19 07:43:36;;;;;;;4.00;3.50;;;;;;;27.71;51.73;96263.28;107897;1283;22959;-73
2023/07/19 07:46:09;;;;;;;4.90;4.00;;;;;;;27.78;51.92;96263.41;107889;1283;22537;-73
2023/07/19 07:48:40;;;;;;;6.40;4.10;;;;;;;27.83;51.31;96258.09;107863;1284;22527;-73
2023/07/19 07:51:12;;;;;;;5.50;3.60;;;;;;;27.85;51.62;96260.17;107873;1278;22531;-73
2023/07/19 07:53:43;;;;;;;8.30;3.60;;;;;;;28.03;51.70;96267.52;107897;1283;25435;-73
2023/07/19 07:56:14;;;;;;;6.50;4.00;;;;;;;28.18;51.39;96265.93;107852;1283;22653;-73
2023/07/19 07:58:46;;;;;;;5.20;4.30;;;;;;;28.25;50.85;96266.52;107875;1283;24269;-73
2023/07/19 08:01:18;;;;;;;5.80;4.10;;;;;;;28.31;50.95;96263.77;107865;1283;22536;-73
2023/07/19 08:03:49;;;;;;;6.40;4.00;;;;;;;28.33;50.74;96260.23;107873;1277;22589;-73
2023/07/19 08:06:20;;;;;;;5.20;4.00;;;;;;;28.40;50.48;96264.63;107898;1283;22736;-73
2023/07/19 08:08:51;;;;;;;5.40;4.30;;;;;;;28.49;50.39;96269.92;107895;1283;22538;-74
2023/07/19 08:11:24;;;;;;;5.90;4.10;;;;;;;28.39;49.90;96272.50;107858;1283;22934;-73
2023/07/19 08:13:56;;;;;;;6.30;4.40;;;;;;;28.20;49.90;96266.63;107850;1277;24309;-73
2023/07/19 08:16:28;;;;;;;9.60;4.70;;;;;;;28.21;50.13;96265.75;107883;1283;22541;-73
2023/07/19 08:18:59;;;;;;;6.80;4.30;;;;;;;28.14;49.75;96263.46;107835;1276;22561;-73
2023/07/19 08:21:30;;;;;;;5.70;4.00;;;;;;;28.01;49.52;96261.23;107896;1283;25369;-73
2023/07/19 08:24:01;;;;;;;8.00;4.30;;;;;;;27.88;49.92;96258.61;107884;1279;23422;-73
2023/07/19 08:26:32;;;;;;;6.20;4.20;;;;;;;27.96;50.07;96253.48;107929;1283;22541;-73
2023/07/19 08:29:03;;;;;;;7.50;4.50;;;;;;;28.16;50.44;96253.49;107867;1281;22561;-73
2023/07/19 08:31:35;;;;;;;7.90;4.30;;;;;;;28.42;49.87;96248.01;107864;1283;22618;-73
2023/07/19 08:34:06;;;;;;;7.10;4.50;;;;;;;28.31;49.57;96243.73;107902;1279;22537;-73
2023/07/19 08:36:37;;;;;;;4.90;3.60;;;;;;;28.42;49.63;96237.10;107904;1274;24434;-73
2023/07/19 08:39:08;;;;;;;7.00;3.90;;;;;;;28.25;48.96;96233.65;107901;1281;22529;-74
2023/07/19 08:41:39;;;;;;;8.50;4.40;;;;;;;28.11;49.22;96233.04;107881;1283;25569;-73
2023/07/19 08:44:12;;;;;;;6.80;4.40;;;;;;;28.10;49.06;96231.73;107890;1283;22534;-73
2023/07/19 08:46:45;;;;;;;5.70;4.40;;;;;;;28.01;48.52;96229.15;107846;1283;24403;-73
2023/07/19 08:49:17;;;;;;;6.80;4.30;;;;;;;27.82;48.69;96224.08;107891;1283;25309;-73
2023/07/19 08:51:50;;;;;;;5.60;4.10;;;;;;;27.64;48.65;96226.20;107871;1282;53017;-73
2023/07/19 08:54:24;;;;;;;8.30;4.70;;;;;;;27.65;48.89;96221.92;107923;1283;22565;-73
2023/07/19 08:56:56;;;;;;;7.70;4.10;;;;;;;27.59;49.01;96223.96;107887;1278;22586;-73
2023/07/19 08:59:27;;;;;;;5.70;4.10;;;;;;;27.73;49.08;96214.10;107852;1276;22553;-73
2023/07/19 09:01:58;;;;;;;10.30;4.70;;;;;;;27.49;48.46;96212.73;107839;1276;22527;-73
2023/07/19 09:04:29;;;;;;;6.60;4.40;;;;;;;27.18;49.00;96215.77;107913;1283;22581;-73
2023/07/19 09:07:05;;;;;;;5.30;3.90;;;;;;;27.19;49.60;96214.30;107899;1283;25336;-73
2023/07/19 09:09:38;;;;;;;7.90;4.50;;;;;;;27.21;49.37;96211.10;107915;1283;22576;-73
2023/07/19 09:12:11;;;;;;;5.70;4.30;;;;;;;27.21;50.07;96203.71;107813;1283;25100;-73
2023/07/19 09:14:42;;;;;;;6.40;4.40;;;;;;;27.23;49.59;96202.61;107917;1280;22550;-73
2023/07/19 09:17:13;;;;;;;6.40;4.30;;;;;;;27.20;49.64;96200.77;107850;1279;23379;-73
2023/07/19 09:19:46;;;;;;;6.60;4.50;;;;;;;27.28;50.16;96201.41;107853;1283;22530;-74
2023/07/19 09:22:18;;;;;;;5.40;4.10;;;;;;;27.40;50.15;96199.25;107842;1281;23439;-73
2023/07/19 09:25:01;;;;;;;6.40;4.30;;;;;;;27.58;51.14;96198.91;107882;1283;22579;-73
2023/07/19 09:27:33;;;;;;;6.00;4.50;;;;;;;27.79;51.25;96202.46;107896;1283;22539;-73
2023/07/19 09:30:09;;;;;;;7.00;3.80;;;;;;;27.77;51.67;96204.42;107873;1283;22548;-73
2023/07/19 09:32:42;;;;;;;6.20;4.30;;;;;;;27.76;51.72;96199.45;107938;1283;22554;-73
2023/07/19 09:35:13;;;;;;;11.10;4.50;;;;;;;27.81;51.85;96199.02;107895;1279;25395;-73
2023/07/19 09:37:44;;;;;;;6.10;4.00;;;;;;;27.82;52.31;96199.95;107893;1281;22571;-73
2023/07/19 09:40:15;;;;;;;9.00;3.90;;;;;;;27.77;52.22;96200.99;107927;1283;22527;-73
2023/07/19 09:42:49;;;;;;;7.60;4.00;;;;;;;27.71;52.21;96202.12;107894;1283;22535;-74
2023/07/19 09:45:23;;;;;;;6.10;4.50;;;;;;;27.60;51.85;96207.62;107937;1283;24236;-73
2023/07/19 09:47:56;;;;;;;6.60;4.50;;;;;;;27.36;51.50;96207.29;107874;1277;25094;-73
2023/07/19 09:50:29;;;;;;;5.80;4.60;;;;;;;27.22;51.15;96205.64;107957;1283;22565;-73
2023/07/19 09:53:05;;;;;;;7.10;4.30;;;;;;;27.00;51.76;96202.54;107881;1283;22541;-73
2023/07/19 09:55:37;;;;;;;6.30;4.30;;;;;;;26.92;52.39;96195.49;107907;1283;22532;-73
2023/07/19 09:58:12;;;;;;;9.20;4.70;;;;;;;27.01;53.11;96190.10;107889;1283;22566;-73
2023/07/19 10:00:44;;;;;;;5.80;4.30;;;;;;;27.28;54.13;96185.01;107892;1283;23889;-73
2023/07/19 10:03:21;;;;;;;7.00;4.20;;;;;;;27.52;54.10;96180.52;107866;1284;22652;-74
2023/07/19 10:05:58;;;;;;;6.00;4.60;;;;;;;27.64;53.15;96180.54;107839;1284;25438;-73
2023/07/19 10:08:29;;;;;;;5.40;4.30;;;;;;;27.69;53.70;96181.83;107869;1277;22536;-73
2023/07/19 10:11:01;;;;;;;7.40;4.50;;;;;;;27.79;53.66;96180.50;107830;1283;22529;-73
2023/07/19 10:13:56;;;;;;;6.50;4.80;;;;;;;27.84;53.51;96181.55;107813;1283;22530;-73
2023/07/19 10:16:35;;;;;;;7.20;4.50;;;;;;;27.87;53.48;96175.55;107981;1283;24385;-73
2023/07/19 10:19:14;;;;;;;7.70;4.50;;;;;;;27.80;53.02;96174.44;107911;1283;22542;-73
2023/07/19 10:22:04;;;;;;;7.80;4.70;;;;;;;27.78;53.38;96173.20;107876;1283;22565;-74
2023/07/19 10:24:37;;;;;;;7.90;4.70;;;;;;;27.84;53.49;96164.52;107878;1284;22560;-73
2023/07/19 10:27:10;;;;;;;7.10;4.70;;;;;;;27.71;52.71;96160.80;107793;1284;22596;-73
2023/07/19 10:29:42;;;;;;;6.60;4.30;;;;;;;27.61;53.41;96158.98;107869;1284;22559;-73
2023/07/19 10:32:14;;;;;;;8.90;4.30;;;;;;;27.42;53.00;96154.05;107835;1284;22560;-74
2023/07/19 10:34:49;;;;;;;6.60;4.80;;;;;;;27.25;53.04;96151.73;107764;1284;25350;-73
2023/07/19 10:37:20;;;;;;;7.70;4.70;;;;;;;27.11;53.07;96150.10;107808;1283;25419;-73
2023/07/19 10:39:52;;;;;;;5.70;4.40;;;;;;;27.07;53.78;96149.36;107861;1284;22537;-73
2023/07/19 10:42:23;;;;;;;6.40;4.30;;;;;;;27.16;54.10;96151.85;107847;1285;22531;-73
2023/07/19 10:44:57;;;;;;;5.00;4.20;;;;;;;27.31;54.46;96151.39;107807;1284;22756;-74
2023/07/19 10:47:29;;;;;;;6.50;4.10;;;;;;;27.33;53.70;96151.16;107869;1276;23314;-73
2023/07/19 10:50:00;;;;;;;7.00;4.60;;;;;;;27.28;53.05;96146.35;107810;1280;22536;-74
2023/07/19 10:52:32;;;;;;;7.70;4.80;;;;;;;27.28;53.19;96139.73;107782;1283;22546;-74
2023/07/19 10:55:03;;;;;;;6.70;4.80;;;;;;;27.35;53.59;96141.82;107814;1284;22566;-73
2023/07/19 10:57:37;;;;;;;7.20;4.80;;;;;;;27.45;53.52;96143.30;107855;1284;25375;-74
2023/07/19 11:00:13;;;;;;;8.00;4.60;;;;;;;27.41;52.41;96144.95;107853;1278;22534;-74
2023/07/19 11:02:44;;;;;;;6.80;4.70;;;;;;;27.20;51.67;96137.77;107848;1284;24342;-73
2023/07/19 11:05:17;;;;;;;5.10;4.30;;;;;;;27.03;52.11;96139.73;107813;1284;22543;-74
2023/07/19 11:07:51;;;;;;;5.90;4.50;;;;;;;26.96;51.34;96134.37;107830;1284;23232;-73
2023/07/19 11:10:22;;;;;;;6.80;4.60;;;;;;;26.98;51.45;96134.13;107870;1284;25481;-73
2023/07/19 11:12:54;;;;;;;7.90;4.20;;;;;;;27.00;51.49;96136.84;107716;1280;26462;-73
2023/07/19 11:15:28;;;;;;;6.80;4.50;;;;;;;26.96;51.20;96137.70;107873;1284;23390;-74
2023/07/19 11:17:59;;;;;;;6.00;4.10;;;;;;;27.00;51.92;96135.91;107852;1283;22530;-73
2023/07/19 11:20:32;;;;;;;5.70;4.50;;;;;;;27.10;51.59;96136.11;107796;1270;22623;-73
2023/07/19 11:23:08;;;;;;;6.40;4.50;;;;;;;27.15;51.25;96135.07;107828;1284;27614;-73
2023/07/19 11:25:41;;;;;;;8.20;4.00;;;;;;;27.25;51.52;96128.25;107846;1279;24231;-73
2023/07/19 11:28:13;;;;;;;5.40;4.10;;;;;;;27.38;51.92;96117.90;107779;1284;22521;-74
2023/07/19 11:30:44;;;;;;;7.90;4.60;;;;;;;27.49;51.57;96113.63;107815;1285;24164;-73
2023/07/19 11:33:19;;;;;;;6.70;4.10;;;;;;;27.54;51.08;96115.14;107845;1283;26023;-73
2023/07/19 11:35:54;;;;;;;10.70;4.70;;;;;;;27.66;51.69;96115.46;107837;1276;22574;-73
2023/07/19 11:38:25;;;;;;;8.00;4.60;;;;;;;27.68;51.00;96115.22;107829;1283;22538;-73
2023/07/19 11:40:57;;;;;;;8.10;4.20;;;;;;;27.68;51.24;96114.67;107800;1284;22591;-73
2023/07/19 11:43:29;;;;;;;6.60;4.60;;;;;;;27.73;50.95;96108.88;107833;1284;22648;-73
2023/07/19 11:46:00;;;;;;;5.70;4.00;;;;;;;27.74;50.27;96104.36;107852;1284;22516;-73